Aérodrome :
LOGIN :

S'inscrire | Disclaimer

   EN    FR    IT 

 










Légende :    VFR   VFR Marginal   IFR   IFR Intensif   IFR Très Intensif
Visi : 
Plafond : 
>= 8 km
>= 3000ft
5 à 8 km
1000 à 3000 ft
1500m à 5 km
500 à 1000 ft
800 à 1500m
200 à 500 ft
< 800m
< 200 ft
Symboles :   Orages  Brouillard  Fortes neiges  Fortes précipitations  Vent > 20 kt
SIGMETs :   Divers  Orages  Givrage  Turbulence  Onde Orograph.  Cendres Volcan.






- Altitude de l'aérodrome : 236 ft
- Code IATA : MMX


ESMS - Malmö Sturup

DERNIER METAR :
  • 141720Z 17005KT CAVOK 24/15 Q1014

METARs EXPIRÉS :
  • 141650Z 16005KT CAVOK 25/15 Q1013
  • 141620Z 17005KT 140V210 CAVOK 25/13 Q1013
  • 141550Z 15006KT 110V170 CAVOK 26/14 Q1013
  • 141520Z 16007KT CAVOK 26/14 Q1013
  • 141450Z 15007KT CAVOK 26/13 Q1013

TAF TAF ESMS
Valide du 14 à 12h jusqu'au 15 à 12h UTC


141104Z 1412/1512 09005KT CAVOK
PROB40 1503/1506 2000 MIFG BR



MET'MAP, la Météo Aéronautique d'un coup d'oeil ! - Copyright ORBIFLY Décembre 2007 - Disclaimer

ORBIFLY MET'MAP TEAM :

Programmation & Développement : Alexandra Zaïnal
Sur une idée originale de : Baudouin d'Aumeries
Assistance à la programmation : Marc-Olivier Méhu
Soutien technique & logistique : Manuel Goepfert

Contact : metmap@orbifly.com




SOURCES & CREDITS :

   NOAA